Time;durP1;ratioP1;P1;durP2;ratioP2;P2;SDS_P1;SDS_P2;PMS_P1;PMS_P2;Temp;Humidity;BMP_temperature;BMP_pressure;BME280_temperature;BME280_humidity;BME280_pressure;Samples;Min_cycle;Max_cycle;Signal;HPM_P1;HPM_P2
2021/03/17 00:01:44;;;;;;;11.25;2.53;;;;;;;;;;4945579;28;20050;-63
2021/03/17 00:04:10;;;;;;;8.88;2.50;;;;;;;;;;4951269;28;20146;-64
2021/03/17 00:06:38;;;;;;;6.18;2.13;;;;;;;;;;4941075;28;21043;-63
2021/03/17 00:09:04;;;;;;;14.85;2.78;;;;;;;;;;4950656;28;20045;-63
2021/03/17 00:11:30;;;;;;;9.43;2.28;;;;;;;;;;4944718;28;20607;-64
2021/03/17 00:13:58;;;;;;;12.32;2.35;;;;;;;;;;4946040;28;20046;-64
2021/03/17 00:16:24;;;;;;;15.13;2.05;;;;;;;;;;4943782;28;20045;-63
2021/03/17 00:18:54;;;;;;;12.68;2.47;;;;;;;;;;4938368;28;20058;-63
2021/03/17 00:21:20;;;;;;;7.20;1.92;;;;;;;;;;4945293;28;20502;-63
2021/03/17 00:23:46;;;;;;;16.65;2.88;;;;;;;;;;4946111;28;20041;-63
2021/03/17 00:26:12;;;;;;;11.95;2.33;;;;;;;;;;4946610;28;20058;-63
2021/03/17 00:28:38;;;;;;;11.02;2.60;;;;;;;;;;4938445;28;20039;-63
2021/03/17 00:31:04;;;;;;;8.80;2.35;;;;;;;;;;4941819;28;20039;-63
2021/03/17 00:33:30;;;;;;;8.45;2.00;;;;;;;;;;4948220;28;20041;-63
2021/03/17 00:35:56;;;;;;;10.40;2.42;;;;;;;;;;4940736;28;20038;-63
2021/03/17 00:38:22;;;;;;;9.25;2.08;;;;;;;;;;4945218;28;20030;-63
2021/03/17 00:40:48;;;;;;;7.32;2.20;;;;;;;;;;4948506;28;20277;-63
2021/03/17 00:43:14;;;;;;;5.95;2.03;;;;;;;;;;4936392;28;20039;-63
2021/03/17 00:45:40;;;;;;;12.43;2.30;;;;;;;;;;4937114;28;20987;-63
2021/03/17 00:48:10;;;;;;;13.68;2.22;;;;;;;;;;4935273;28;20046;-63
2021/03/17 00:50:36;;;;;;;9.43;2.13;;;;;;;;;;4943231;28;20038;-63
2021/03/17 00:53:02;;;;;;;5.40;1.77;;;;;;;;;;4946425;28;20054;-63
2021/03/17 00:55:28;;;;;;;10.48;2.15;;;;;;;;;;4945178;28;20043;-64
2021/03/17 00:57:54;;;;;;;9.07;2.60;;;;;;;;;;4945231;28;20051;-63
2021/03/17 01:00:23;;;;;;;11.40;2.35;;;;;;;;;;4945643;28;20038;-63
2021/03/17 01:02:50;;;;;;;5.72;2.10;;;;;;;;;;4949930;28;20126;-63
2021/03/17 01:05:16;;;;;;;10.15;2.47;;;;;;;;;;4942273;28;20167;-63
2021/03/17 01:07:42;;;;;;;10.95;2.25;;;;;;;;;;4940744;28;20050;-63
2021/03/17 01:10:14;;;;;;;7.32;2.25;;;;;;;;;;4945195;28;20058;-63
2021/03/17 01:12:41;;;;;;;10.77;2.40;;;;;;;;;;4952172;28;20037;-64
2021/03/17 01:15:08;;;;;;;14.68;2.60;;;;;;;;;;4946269;28;20564;-63
2021/03/17 01:17:34;;;;;;;10.07;2.63;;;;;;;;;;4941075;28;20046;-64
2021/03/17 01:20:02;;;;;;;10.48;3.00;;;;;;;;;;4942842;28;20470;-63
2021/03/17 01:22:28;;;;;;;12.75;2.88;;;;;;;;;;4958292;28;20042;-65
2021/03/17 01:24:54;;;;;;;7.03;2.15;;;;;;;;;;4950590;28;20038;-63
2021/03/17 01:27:20;;;;;;;14.30;2.70;;;;;;;;;;4943278;28;20565;-63
2021/03/17 01:29:46;;;;;;;21.52;3.22;;;;;;;;;;4943594;28;20043;-63
2021/03/17 01:32:14;;;;;;;7.45;2.30;;;;;;;;;;4948164;28;20058;-63
2021/03/17 01:34:41;;;;;;;8.57;2.83;;;;;;;;;;4954936;28;20046;-63
2021/03/17 01:37:07;;;;;;;14.98;3.45;;;;;;;;;;4953419;28;20043;-64
2021/03/17 01:39:33;;;;;;;17.60;3.28;;;;;;;;;;4947786;28;20929;-63
2021/03/17 01:41:59;;;;;;;9.60;3.08;;;;;;;;;;4940038;28;20042;-64
2021/03/17 01:44:27;;;;;;;11.38;2.90;;;;;;;;;;4941167;28;20065;-63
2021/03/17 01:46:53;;;;;;;6.40;3.10;;;;;;;;;;4945589;28;21221;-63
2021/03/17 01:49:19;;;;;;;10.68;2.80;;;;;;;;;;4941191;28;20042;-63
2021/03/17 01:51:45;;;;;;;7.57;3.20;;;;;;;;;;4938522;28;20770;-63
2021/03/17 01:54:11;;;;;;;10.60;3.05;;;;;;;;;;4940272;28;20046;-63
2021/03/17 01:56:37;;;;;;;10.95;3.15;;;;;;;;;;4941014;28;20035;-64
2021/03/17 01:59:04;;;;;;;14.10;2.90;;;;;;;;;;4937120;28;20035;-63
2021/03/17 02:01:30;;;;;;;18.40;3.53;;;;;;;;;;4941561;28;20081;-64
2021/03/17 02:03:56;;;;;;;12.10;2.90;;;;;;;;;;4940261;28;20057;-63
2021/03/17 02:06:22;;;;;;;11.35;2.38;;;;;;;;;;4935235;28;20039;-63
2021/03/17 02:08:48;;;;;;;15.02;2.45;;;;;;;;;;4935374;28;20117;-63
2021/03/17 02:11:14;;;;;;;11.40;2.38;;;;;;;;;;4934964;28;20045;-63
2021/03/17 02:13:43;;;;;;;12.98;2.50;;;;;;;;;;4939120;28;20130;-63
2021/03/17 02:16:24;;;;;;;10.07;2.38;;;;;;;;;;4938367;28;20060;-64
2021/03/17 02:19:08;;;;;;;17.63;2.00;;;;;;;;;;4932897;28;20085;-63
2021/03/17 02:21:53;;;;;;;12.90;2.47;;;;;;;;;;4938798;28;20520;-64
2021/03/17 02:24:22;;;;;;;9.57;2.28;;;;;;;;;;4943471;28;20522;-63
2021/03/17 02:27:13;;;;;;;12.48;2.40;;;;;;;;;;4934687;28;20042;-63
2021/03/17 02:29:57;;;;;;;8.63;2.00;;;;;;;;;;4935093;28;20431;-63
2021/03/17 02:32:36;;;;;;;12.32;2.60;;;;;;;;;;4935192;28;20569;-63
2021/03/17 02:35:04;;;;;;;8.77;1.85;;;;;;;;;;4933316;28;20070;-63
2021/03/17 02:37:31;;;;;;;8.88;2.45;;;;;;;;;;4925324;28;20039;-63
2021/03/17 02:39:57;;;;;;;9.25;1.73;;;;;;;;;;4930639;28;20126;-63
2021/03/17 02:42:43;;;;;;;7.88;2.00;;;;;;;;;;4937618;28;20053;-63
2021/03/17 02:45:11;;;;;;;17.58;2.28;;;;;;;;;;4936210;28;20114;-63
2021/03/17 02:47:41;;;;;;;10.07;1.77;;;;;;;;;;4927858;28;20125;-64
2021/03/17 02:50:10;;;;;;;13.05;2.33;;;;;;;;;;4937015;28;20070;-63
2021/03/17 02:52:37;;;;;;;9.95;1.95;;;;;;;;;;4937393;28;20105;-63
2021/03/17 02:55:05;;;;;;;13.85;2.13;;;;;;;;;;4934758;28;20031;-63
2021/03/17 02:57:34;;;;;;;5.10;1.60;;;;;;;;;;4929684;28;20045;-63
2021/03/17 03:00:00;;;;;;;6.60;1.90;;;;;;;;;;4930125;28;20047;-64
2021/03/17 03:02:27;;;;;;;7.93;1.40;;;;;;;;;;4931111;28;20054;-63
2021/03/17 03:04:54;;;;;;;8.77;1.80;;;;;;;;;;4927044;28;20035;-64
2021/03/17 03:07:24;;;;;;;8.05;1.63;;;;;;;;;;4946818;28;20034;-63
2021/03/17 03:09:53;;;;;;;8.20;1.70;;;;;;;;;;4929676;28;20089;-63
2021/03/17 03:12:19;;;;;;;9.82;1.95;;;;;;;;;;4925957;28;24394;-63
2021/03/17 03:14:46;;;;;;;4.18;1.38;;;;;;;;;;4931132;28;20049;-63
2021/03/17 03:17:13;;;;;;;8.55;1.63;;;;;;;;;;4927230;28;20050;-63
2021/03/17 03:19:40;;;;;;;8.98;1.95;;;;;;;;;;4929841;28;20121;-63
2021/03/17 03:22:08;;;;;;;14.15;1.85;;;;;;;;;;4928466;28;20031;-63
2021/03/17 03:24:34;;;;;;;13.15;2.53;;;;;;;;;;4930275;28;20043;-64
2021/03/17 03:27:00;;;;;;;16.30;1.70;;;;;;;;;;4932920;28;20066;-63
2021/03/17 03:29:27;;;;;;;12.95;1.92;;;;;;;;;;4930748;28;20053;-63
2021/03/17 03:31:53;;;;;;;17.08;2.35;;;;;;;;;;4931149;28;20040;-63
2021/03/17 03:34:21;;;;;;;9.95;1.52;;;;;;;;;;4938299;28;20046;-63
2021/03/17 03:36:47;;;;;;;7.25;1.83;;;;;;;;;;4931318;28;20049;-63
2021/03/17 03:39:14;;;;;;;7.10;1.83;;;;;;;;;;4931392;28;20065;-63
2021/03/17 03:41:40;;;;;;;6.68;1.92;;;;;;;;;;4928414;28;20184;-63
2021/03/17 03:44:08;;;;;;;12.90;1.88;;;;;;;;;;4931709;28;20059;-63
2021/03/17 03:46:35;;;;;;;8.38;1.65;;;;;;;;;;4928988;28;20384;-63
2021/03/17 03:49:02;;;;;;;11.55;1.77;;;;;;;;;;4922714;28;20041;-67
2021/03/17 03:51:31;;;;;;;7.32;1.77;;;;;;;;;;4937506;28;20030;-63
2021/03/17 03:54:12;;;;;;;11.75;2.15;;;;;;;;;;4922217;28;20481;-63
2021/03/17 03:56:42;;;;;;;9.15;2.08;;;;;;;;;;4923651;28;20039;-63
2021/03/17 03:59:11;;;;;;;10.88;1.85;;;;;;;;;;4927796;28;20121;-63
2021/03/17 04:01:46;;;;;;;11.00;2.13;;;;;;;;;;4929216;28;20558;-63
2021/03/17 04:04:16;;;;;;;9.27;1.85;;;;;;;;;;4929867;28;20509;-63
2021/03/17 04:06:46;;;;;;;7.47;1.83;;;;;;;;;;4927067;28;20051;-63
2021/03/17 04:09:13;;;;;;;6.28;1.60;;;;;;;;;;4931645;28;20199;-63
2021/03/17 04:11:40;;;;;;;13.10;1.55;;;;;;;;;;4928811;28;20498;-63
2021/03/17 04:14:08;;;;;;;5.97;1.45;;;;;;;;;;4924292;28;20153;-65
2021/03/17 04:16:36;;;;;;;10.43;2.13;;;;;;;;;;4916396;28;20039;-64
2021/03/17 04:19:02;;;;;;;9.20;1.92;;;;;;;;;;4919149;28;20570;-63
2021/03/17 04:21:29;;;;;;;5.65;1.63;;;;;;;;;;4926415;28;20039;-63
2021/03/17 04:23:56;;;;;;;9.50;1.70;;;;;;;;;;4939598;28;20182;-65
2021/03/17 04:26:23;;;;;;;6.43;1.35;;;;;;;;;;4929303;28;20035;-64
2021/03/17 04:28:49;;;;;;;9.43;2.00;;;;;;;;;;4924714;28;20042;-66
2021/03/17 04:31:16;;;;;;;8.57;1.80;;;;;;;;;;4925598;28;20039;-65
2021/03/17 04:33:43;;;;;;;7.88;1.45;;;;;;;;;;4927629;28;20130;-64
2021/03/17 04:36:11;;;;;;;12.38;2.00;;;;;;;;;;4925820;28;20039;-63
2021/03/17 04:38:37;;;;;;;9.00;1.48;;;;;;;;;;4941239;28;20132;-63
2021/03/17 04:41:03;;;;;;;6.25;1.40;;;;;;;;;;4933236;28;20526;-63
2021/03/17 04:43:30;;;;;;;9.82;1.60;;;;;;;;;;4933059;28;20043;-65
2021/03/17 04:45:59;;;;;;;10.38;1.45;;;;;;;;;;4940632;28;20471;-62
2021/03/17 04:48:25;;;;;;;9.35;2.00;;;;;;;;;;4931373;28;20045;-65
2021/03/17 04:50:51;;;;;;;10.02;1.50;;;;;;;;;;4929398;28;20047;-64
2021/03/17 04:53:18;;;;;;;9.10;1.88;;;;;;;;;;4941587;28;20039;-64
2021/03/17 04:55:44;;;;;;;10.25;1.70;;;;;;;;;;4940245;28;20403;-63
2021/03/17 04:58:13;;;;;;;9.93;1.58;;;;;;;;;;4939408;28;20047;-64
2021/03/17 05:00:41;;;;;;;6.70;1.70;;;;;;;;;;4941012;28;20069;-64
2021/03/17 05:03:11;;;;;;;4.60;1.38;;;;;;;;;;4935946;28;20722;-64
2021/03/17 05:05:39;;;;;;;6.55;1.85;;;;;;;;;;4925062;28;20045;-64
2021/03/17 05:08:05;;;;;;;7.15;1.50;;;;;;;;;;4933581;28;20050;-65
2021/03/17 05:10:32;;;;;;;9.02;1.83;;;;;;;;;;4930935;28;20046;-65
2021/03/17 05:12:58;;;;;;;10.25;1.98;;;;;;;;;;4931953;28;20183;-64
2021/03/17 05:15:24;;;;;;;7.40;1.85;;;;;;;;;;4940395;28;20465;-64
2021/03/17 05:17:51;;;;;;;8.02;1.90;;;;;;;;;;4932624;28;20451;-64
2021/03/17 05:20:18;;;;;;;8.40;1.83;;;;;;;;;;4925942;28;20070;-64
2021/03/17 05:22:45;;;;;;;13.13;2.17;;;;;;;;;;4935844;28;20142;-64
2021/03/17 05:25:14;;;;;;;11.32;2.05;;;;;;;;;;4936072;28;20081;-64
2021/03/17 05:27:40;;;;;;;8.70;2.17;;;;;;;;;;4933947;28;20086;-63
2021/03/17 05:30:10;;;;;;;13.27;2.00;;;;;;;;;;4927363;28;20042;-63
2021/03/17 05:32:37;;;;;;;6.47;1.90;;;;;;;;;;4925248;28;20085;-64
2021/03/17 05:35:05;;;;;;;8.95;2.20;;;;;;;;;;4930414;28;20043;-64
2021/03/17 05:37:33;;;;;;;9.35;1.60;;;;;;;;;;4931894;28;20039;-63
2021/03/17 05:39:59;;;;;;;7.43;1.77;;;;;;;;;;4936119;28;20522;-63
2021/03/17 05:42:26;;;;;;;6.47;2.10;;;;;;;;;;4927439;28;20039;-64
2021/03/17 05:44:52;;;;;;;5.30;1.60;;;;;;;;;;4934938;28;20043;-63
2021/03/17 05:47:19;;;;;;;10.10;1.92;;;;;;;;;;4934295;28;20082;-63
2021/03/17 05:49:45;;;;;;;10.30;1.80;;;;;;;;;;4936176;28;20042;-63
2021/03/17 05:52:12;;;;;;;11.27;2.03;;;;;;;;;;4940796;28;20046;-63
2021/03/17 05:54:38;;;;;;;6.78;2.13;;;;;;;;;;4931979;28;20516;-63
2021/03/17 05:57:04;;;;;;;11.35;1.77;;;;;;;;;;4935996;28;20463;-63
2021/03/17 05:59:30;;;;;;;11.50;1.92;;;;;;;;;;4940589;28;20046;-65
2021/03/17 06:01:56;;;;;;;9.60;2.13;;;;;;;;;;4935996;28;20632;-64
2021/03/17 06:04:24;;;;;;;12.80;2.67;;;;;;;;;;4944569;28;20042;-64
2021/03/17 06:06:51;;;;;;;6.88;2.28;;;;;;;;;;4955155;28;20039;-64
2021/03/17 06:09:17;;;;;;;13.38;2.20;;;;;;;;;;4935283;28;20053;-64
2021/03/17 06:11:43;;;;;;;15.57;2.50;;;;;;;;;;4938690;28;20150;-64
2021/03/17 06:14:13;;;;;;;8.20;2.17;;;;;;;;;;4930157;28;20154;-64
2021/03/17 06:16:40;;;;;;;12.32;2.03;;;;;;;;;;4934019;28;20491;-64
2021/03/17 06:19:06;;;;;;;11.70;1.90;;;;;;;;;;4940485;28;20035;-64
2021/03/17 06:21:32;;;;;;;8.40;2.20;;;;;;;;;;4946973;28;20039;-64
2021/03/17 06:23:58;;;;;;;11.15;2.47;;;;;;;;;;4937433;28;20117;-64
2021/03/17 06:26:25;;;;;;;6.00;1.95;;;;;;;;;;4941053;28;20023;-64
2021/03/17 06:28:51;;;;;;;17.73;2.42;;;;;;;;;;4938694;28;20044;-64
2021/03/17 06:31:18;;;;;;;15.15;2.42;;;;;;;;;;4939325;28;20110;-64
2021/03/17 06:33:44;;;;;;;9.82;1.67;;;;;;;;;;4938155;28;20882;-64
2021/03/17 06:36:13;;;;;;;13.23;2.10;;;;;;;;;;4934367;28;24565;-64
2021/03/17 06:38:40;;;;;;;8.30;2.08;;;;;;;;;;4943351;28;20038;-64
2021/03/17 06:41:06;;;;;;;8.73;1.70;;;;;;;;;;4933370;28;20149;-64
2021/03/17 06:43:42;;;;;;;10.32;1.85;;;;;;;;;;4926110;28;20035;-64
2021/03/17 06:46:09;;;;;;;8.13;1.92;;;;;;;;;;4936140;28;20047;-64
2021/03/17 06:48:38;;;;;;;9.77;1.90;;;;;;;;;;4936933;28;20867;-65
2021/03/17 06:51:12;;;;;;;11.07;1.98;;;;;;;;;;4938515;28;20515;-64
2021/03/17 06:53:40;;;;;;;8.05;1.80;;;;;;;;;;4940451;28;20125;-64
2021/03/17 06:56:12;;;;;;;14.43;2.15;;;;;;;;;;4942098;28;20403;-64
2021/03/17 06:58:39;;;;;;;5.18;1.55;;;;;;;;;;4940484;28;20073;-64
2021/03/17 07:01:05;;;;;;;13.00;1.98;;;;;;;;;;4936108;28;21258;-64
2021/03/17 07:03:31;;;;;;;7.40;1.85;;;;;;;;;;4936167;28;20058;-64
2021/03/17 07:05:57;;;;;;;9.93;2.08;;;;;;;;;;4926727;28;20049;-64
2021/03/17 07:08:30;;;;;;;12.30;1.58;;;;;;;;;;4937882;28;20718;-63
2021/03/17 07:10:57;;;;;;;5.78;1.55;;;;;;;;;;4934130;28;20174;-64
2021/03/17 07:13:24;;;;;;;4.68;1.75;;;;;;;;;;4942871;28;20053;-64
2021/03/17 07:15:54;;;;;;;10.98;2.10;;;;;;;;;;4937920;28;20061;-64
2021/03/17 07:18:27;;;;;;;5.68;1.80;;;;;;;;;;4935701;28;20391;-64
2021/03/17 07:20:55;;;;;;;18.50;2.10;;;12.10;44.30;;;;;;4937968;28;20160;-64
2021/03/17 07:23:26;;;;;;;7.05;1.60;;;9.90;56.80;;;;;;4942833;28;20046;-64
2021/03/17 07:26:25;;;;;;;10.00;2.13;;;9.90;56.50;;;;;;4944278;28;20049;-64
2021/03/17 07:28:52;;;;;;;7.45;1.60;;;9.90;56.70;;;;;;4915992;28;20038;-64
2021/03/17 07:31:22;;;;;;;7.32;1.30;;;10.00;56.70;;;;;;4931832;28;20053;-64
2021/03/17 07:33:48;;;;;;;9.32;1.90;;;10.20;56.70;;;;;;4938919;28;20113;-64
2021/03/17 07:36:35;;;;;;;9.70;2.00;;;10.40;56.70;;;;;;4942207;28;20039;-64
2021/03/17 07:39:10;;;;;;;5.97;1.70;;;10.60;56.60;;;;;;4938577;28;20035;-64
2021/03/17 07:41:36;;;;;;;9.32;1.50;;;10.70;56.50;;;;;;4940245;28;20070;-63
2021/03/17 07:44:09;;;;;;;13.70;2.60;;;11.00;56.30;;;;;;4930342;28;20055;-64
2021/03/17 07:46:36;;;;;;;9.75;1.90;;;11.20;55.90;;;;;;4934567;28;20832;-64
2021/03/17 07:49:03;;;;;;;11.27;1.88;;;11.40;55.20;;;;;;4936706;28;20793;-64
2021/03/17 07:51:32;;;;;;;13.70;2.65;;;11.40;54.80;;;;;;4937543;28;20039;-64
2021/03/17 07:53:59;;;;;;;21.40;2.22;;;11.50;54.90;;;;;;4938405;28;20070;-64
2021/03/17 07:56:25;;;;;;;13.75;1.98;;;11.60;54.70;;;;;;4939368;28;20137;-64
2021/03/17 07:58:56;;;;;;;12.90;2.05;;;11.70;54.40;;;;;;4934252;28;20038;-64
2021/03/17 08:01:23;;;;;;;11.98;2.15;;;11.70;54.10;;;;;;4942901;28;20086;-64
2021/03/17 08:03:50;;;;;;;18.30;2.22;;;11.80;53.80;;;;;;4945913;28;20039;-64
2021/03/17 08:06:20;;;;;;;11.88;1.77;;;11.80;53.70;;;;;;4943605;28;20041;-63
2021/03/17 08:08:51;;;;;;;11.80;2.10;;;11.80;53.90;;;;;;4946370;28;20801;-64
2021/03/17 08:11:19;;;;;;;13.48;2.28;;;11.90;54.10;;;;;;4951659;28;20679;-64
2021/03/17 08:13:50;;;;;;;13.80;2.10;;;12.00;54.00;;;;;;4951719;28;20605;-64
2021/03/17 08:16:20;;;;;;;16.75;2.17;;;12.20;53.60;;;;;;4956066;28;20426;-63
2021/03/17 08:18:48;;;;;;;11.38;2.03;;;12.40;53.20;;;;;;4948989;28;20035;-64
2021/03/17 08:21:15;;;;;;;17.17;2.30;;;12.50;53.00;;;;;;4945308;28;20473;-64
2021/03/17 08:23:45;;;;;;;11.18;1.90;;;12.60;52.80;;;;;;4948600;28;20049;-64
2021/03/17 08:26:31;;;;;;;14.63;2.80;;;12.70;52.50;;;;;;4948771;28;20296;-64
2021/03/17 08:29:00;;;;;;;14.60;1.83;;;12.60;52.00;;;;;;4940387;28;20046;-64
2021/03/17 08:31:50;;;;;;;10.13;2.10;;;12.50;52.10;;;;;;4945197;28;20082;-64
2021/03/17 08:34:18;;;;;;;10.85;2.08;;;12.40;52.10;;;;;;4950413;28;20042;-64
2021/03/17 08:36:59;;;;;;;13.93;1.80;;;12.30;52.20;;;;;;4948231;28;20043;-64
2021/03/17 08:39:33;;;;;;;12.23;2.13;;;12.20;52.30;;;;;;4949834;28;20066;-64
2021/03/17 08:42:08;;;;;;;16.33;2.25;;;12.00;52.20;;;;;;4950801;28;20039;-64
2021/03/17 08:44:39;;;;;;;12.07;1.70;;;11.90;52.30;;;;;;4951812;28;20054;-64
2021/03/17 08:47:29;;;;;;;14.48;2.20;;;11.70;52.20;;;;;;4954420;28;20035;-64
2021/03/17 08:50:16;;;;;;;7.90;1.60;;;11.50;52.30;;;;;;4951657;28;20125;-63
2021/03/17 08:52:48;;;;;;;6.95;1.48;;;11.20;52.70;;;;;;4949863;28;20350;-63
2021/03/17 08:55:18;;;;;;;13.52;2.05;;;11.10;53.10;;;;;;4953640;28;20035;-64
2021/03/17 08:58:09;;;;;;;8.18;1.88;;;11.00;53.50;;;;;;4953444;28;20039;-63
2021/03/17 09:00:45;;;;;;;8.85;1.83;;;11.00;53.70;;;;;;4952148;28;20063;-64
2021/03/17 09:03:32;;;;;;;4.05;1.33;;;11.00;53.70;;;;;;4947286;28;20403;-63
2021/03/17 09:06:22;;;;;;;9.63;1.90;;;11.10;53.40;;;;;;4948281;28;20492;-64
2021/03/17 09:08:49;;;;;;;3.33;1.20;;;11.10;53.00;;;;;;4949739;28;20113;-64
2021/03/17 09:11:44;;;;;;;3.60;1.42;;;11.00;52.50;;;;;;4955298;28;20077;-64
2021/03/17 09:14:20;;;;;;;7.03;1.38;;;11.00;52.80;;;;;;4950120;28;20581;-63
2021/03/17 09:17:07;;;;;;;6.53;1.17;;;11.00;52.90;;;;;;4963753;28;20065;-64
2021/03/17 09:19:57;;;;;;;7.35;1.23;;;11.20;53.10;;;;;;4945070;28;20065;-64
2021/03/17 09:22:57;;;;;;;6.55;1.60;;;11.30;52.40;;;;;;4954845;28;20046;-64
2021/03/17 09:25:30;;;;;;;5.50;1.00;;;11.40;52.20;;;;;;4947470;28;20045;-64
2021/03/17 09:28:05;;;;;;;5.85;1.20;;;11.50;51.90;;;;;;4949842;28;20031;-64
2021/03/17 09:30:49;;;;;;;6.28;1.50;;;11.70;51.70;;;;;;4958192;28;20946;-64
2021/03/17 09:33:35;;;;;;;5.60;1.40;;;11.80;50.90;;;;;;4948379;28;20046;-64
2021/03/17 09:36:05;;;;;;;7.65;1.00;;;11.90;50.30;;;;;;4948443;28;20039;-64
2021/03/17 09:38:36;;;;;;;4.53;1.00;;;12.20;50.90;;;;;;4948171;28;20039;-64
2021/03/17 09:41:02;;;;;;;3.47;1.10;;;;;;;;;;4954594;28;20062;-64
2021/03/17 09:43:32;;;;;;;3.30;1.30;;;;;;;;;;4945630;28;20779;-64
2021/03/17 09:45:59;;;;;;;6.45;1.35;;;;;;;;;;4963118;28;20046;-64
2021/03/17 09:48:26;;;;;;;6.88;0.90;;;12.70;50.50;;;;;;4946626;28;20088;-65
2021/03/17 09:51:00;;;;;;;2.72;1.30;;;14.00;46.30;;;;;;4943948;28;20042;-65
2021/03/17 09:53:26;;;;;;;3.60;1.30;;;13.80;46.30;;;;;;4954067;28;20142;-64
2021/03/17 09:55:55;;;;;;;7.15;1.00;;;13.60;46.30;;;;;;4945820;28;20046;-64
2021/03/17 09:58:22;;;;;;;6.22;0.95;;;;;;;;;;4946844;28;20135;-64
2021/03/17 10:00:48;;;;;;;8.05;1.20;;;;;;;;;;4955400;28;20049;-63
2021/03/17 10:03:14;;;;;;;5.00;1.10;;;;;;;;;;4945737;28;20518;-64
2021/03/17 10:05:43;;;;;;;4.95;1.52;;;;;;;;;;4950030;28;20039;-65
2021/03/17 10:08:09;;;;;;;9.35;1.90;;;;;;;;;;4944649;28;20051;-64
2021/03/17 10:10:36;;;;;;;4.55;1.15;;;;;;;;;;4945642;28;20043;-64
2021/03/17 10:13:02;;;;;;;4.22;1.20;;;;;;;;;;4946783;28;20085;-64
2021/03/17 10:15:28;;;;;;;4.90;1.20;;;;;;;;;;4948785;28;20505;-64
2021/03/17 10:17:57;;;;;;;6.78;1.70;;;;;;;;;;4948966;28;20649;-64
2021/03/17 10:20:24;;;;;;;6.72;1.10;;;;;;;;;;4957149;28;20091;-64
2021/03/17 10:22:51;;;;;;;6.18;1.52;;;;;;;;;;4952764;28;20051;-65
2021/03/17 10:25:21;;;;;;;7.18;1.60;;;;;;;;;;4948287;28;20047;-65
2021/03/17 10:27:51;;;;;;;5.95;1.20;;;;;;;;;;4953846;28;20047;-64
2021/03/17 10:30:18;;;;;;;4.18;1.15;;;;;;;;;;4944844;28;20085;-65
2021/03/17 10:32:47;;;;;;;4.97;1.02;;;;;;;;;;4950226;28;20039;-64
2021/03/17 10:35:17;;;;;;;7.03;1.40;;;;;;;;;;4957894;28;20121;-64
2021/03/17 10:37:43;;;;;;;9.60;1.27;;;;;;;;;;4951024;28;20057;-65
2021/03/17 10:40:10;;;;;;;5.63;1.70;;;;;;;;;;4950600;28;20070;-64
2021/03/17 10:42:45;;;;;;;9.55;1.83;;;;;;;;;;4948464;28;20407;-64
2021/03/17 10:45:20;;;;;;;7.95;1.63;;;;;;;;;;4943487;28;20112;-65
2021/03/17 10:47:46;;;;;;;7.68;1.70;;;;;;;;;;4949142;28;20042;-64
2021/03/17 10:50:17;;;;;;;7.82;1.38;;;;;;;;;;4950517;28;20058;-65
2021/03/17 10:52:47;;;;;;;5.18;1.35;;;;;;;;;;4953224;28;20058;-65
2021/03/17 10:55:18;;;;;;;8.23;1.70;;;;;;;;;;4952447;28;20035;-64
2021/03/17 10:57:44;;;;;;;8.38;1.42;;;;;;;;;;4947778;28;20053;-64
2021/03/17 11:00:12;;;;;;;7.70;1.67;;;;;;;;;;4951292;28;20649;-65
2021/03/17 11:02:40;;;;;;;7.18;1.50;;;;;;;;;;4947430;28;20493;-65
2021/03/17 11:05:10;;;;;;;6.43;1.45;;;;;;;;;;4946752;28;20093;-65
2021/03/17 11:07:48;;;;;;;7.78;1.38;;;;;;;;;;4954584;28;20043;-65
2021/03/17 11:10:33;;;;;;;7.18;1.17;;;;;;;;;;4953276;28;20093;-65
2021/03/17 11:12:59;;;;;;;7.40;1.42;;;;;;;;;;4947231;28;20501;-65
2021/03/17 11:15:26;;;;;;;5.38;1.50;;;;;;;;;;4954991;28;20078;-65
2021/03/17 11:17:53;;;;;;;12.90;1.27;;;;;;;;;;4951419;28;20539;-65
2021/03/17 11:20:19;;;;;;;9.00;1.67;;;;;;;;;;4943309;28;20047;-65
2021/03/17 11:22:45;;;;;;;5.57;1.15;;;;;;;;;;4946687;28;20530;-65
2021/03/17 11:25:12;;;;;;;4.47;1.17;;;13.40;46.50;;;;;;4950627;28;20067;-65
2021/03/17 11:27:41;;;;;;;7.25;1.50;;;18.60;34.90;;;;;;4943719;28;20042;-65
2021/03/17 11:30:10;;;;;;;9.52;1.50;;;18.50;35.90;;;;;;4941194;28;20055;-65
2021/03/17 11:32:36;;;;;;;6.03;1.48;;;19.50;35.20;;;;;;4950946;28;20042;-65
2021/03/17 11:35:05;;;;;;;6.40;1.70;;;21.00;33.90;;;;;;4956936;28;20377;-65
2021/03/17 11:37:30;;;;;;;9.32;1.60;;;22.70;31.70;;;;;;4940489;28;20530;-65
2021/03/17 11:39:58;;;;;;;5.97;1.95;;;23.70;29.30;;;;;;4951784;28;20150;-65
2021/03/17 11:42:24;;;;;;;7.80;1.50;;;23.30;28.70;;;;;;4948794;28;20047;-65
2021/03/17 11:44:50;;;;;;;8.38;1.33;;;22.20;29.00;;;;;;4942846;28;20502;-65
2021/03/17 11:47:15;;;;;;;9.25;2.03;;;21.20;29.90;;;;;;4951412;28;20035;-65
2021/03/17 11:49:43;;;;;;;6.18;1.17;;;20.30;31.40;;;;;;4949190;28;20050;-65
2021/03/17 11:52:09;;;;;;;7.28;1.52;;;19.80;32.30;;;;;;4952934;28;20050;-65
2021/03/17 11:54:37;;;;;;;7.80;1.52;;;19.60;33.80;;;;;;4947091;28;20034;-65
2021/03/17 11:57:03;;;;;;;4.95;1.65;;;20.10;34.40;;;;;;4943498;28;20030;-66
2021/03/17 11:59:31;;;;;;;7.78;1.25;;;21.20;33.20;;;;;;4943084;28;20043;-66
2021/03/17 12:01:56;;;;;;;7.45;1.40;;;22.40;31.50;;;;;;4955688;28;20097;-65
2021/03/17 12:04:22;;;;;;;9.15;1.48;;;23.10;29.40;;;;;;4948345;28;20850;-66
2021/03/17 12:06:48;;;;;;;10.48;1.80;;;22.60;29.10;;;;;;4954246;28;20722;-66
2021/03/17 12:09:16;;;;;;;8.65;1.30;;;21.70;29.60;;;;;;4949976;28;20046;-65
2021/03/17 12:11:41;;;;;;;9.65;1.60;;;20.70;30.60;;;;;;4948717;28;20035;-66
2021/03/17 12:14:08;;;;;;;8.02;1.35;;;19.70;32.10;;;;;;4951770;28;20046;-65
2021/03/17 12:16:34;;;;;;;7.03;1.90;;;19.20;33.20;;;;;;4946276;28;20031;-66
2021/03/17 12:19:02;;;;;;;8.07;1.67;;;18.90;33.70;;;;;;4948293;28;20039;-65
2021/03/17 12:21:27;;;;;;;6.30;1.25;;;18.60;34.40;;;;;;4953469;28;20039;-65
2021/03/17 12:23:55;;;;;;;5.28;1.38;;;18.40;34.80;;;;;;4940181;28;20037;-66
2021/03/17 12:26:21;;;;;;;6.93;1.60;;;18.30;34.90;;;;;;4937844;28;20126;-66
2021/03/17 12:28:49;;;;;;;3.70;1.00;;;18.40;35.60;;;;;;4928714;28;20039;-65
2021/03/17 12:31:16;;;;;;;5.57;1.40;;;18.60;35.20;;;;;;4936404;28;20212;-65
2021/03/17 12:33:41;;;;;;;6.53;1.60;;;18.70;35.10;;;;;;4958121;28;20065;-66
2021/03/17 12:36:07;;;;;;;7.32;1.30;;;18.70;34.90;;;;;;4941290;28;20486;-65
2021/03/17 12:38:33;;;;;;;10.00;1.50;;;18.70;35.10;;;;;;4946685;28;20046;-66
2021/03/17 12:40:59;;;;;;;6.72;1.65;;;18.80;34.80;;;;;;4953862;28;20538;-65
2021/03/17 12:43:24;;;;;;;6.93;1.63;;;18.70;34.50;;;;;;4951117;28;20035;-65
2021/03/17 12:45:51;;;;;;;4.07;1.25;;;18.30;34.50;;;;;;4947210;28;20126;-65
2021/03/17 12:48:20;;;;;;;4.35;1.80;;;17.90;35.10;;;;;;4945405;28;20540;-65
2021/03/17 12:50:46;;;;;;;6.97;1.55;;;17.40;35.60;;;;;;4952225;28;20061;-65
2021/03/17 12:53:11;;;;;;;8.32;1.58;;;17.10;36.20;;;;;;4949371;28;20129;-65
2021/03/17 12:55:39;;;;;;;4.53;1.70;;;16.80;36.50;;;;;;4955371;28;20410;-65
2021/03/17 12:58:07;;;;;;;7.65;1.50;;;16.70;37.30;;;;;;4954125;28;20050;-65
2021/03/17 13:00:33;;;;;;;6.38;1.35;;;16.80;37.20;;;;;;4960973;28;20034;-65
2021/03/17 13:02:59;;;;;;;6.65;1.20;;;17.00;37.40;;;;;;4940837;28;20209;-65
2021/03/17 13:05:27;;;;;;;7.63;1.15;;;17.10;36.60;;;;;;4934904;28;20429;-65
2021/03/17 13:07:53;;;;;;;9.43;1.80;;;17.00;36.80;;;;;;4937192;28;20039;-65
2021/03/17 13:10:24;;;;;;;8.88;1.58;;;16.80;36.80;;;;;;4938808;28;21093;-65
2021/03/17 13:12:50;;;;;;;6.70;1.27;;;16.70;36.90;;;;;;4940089;28;20096;-65
2021/03/17 13:15:17;;;;;;;4.30;1.63;;;16.50;37.10;;;;;;4942577;28;20042;-65
2021/03/17 13:17:43;;;;;;;3.20;1.30;;;16.40;37.60;;;;;;4942346;28;20439;-64
2021/03/17 13:20:11;;;;;;;4.22;1.52;;;16.40;37.90;;;;;;4923806;28;20053;-65
2021/03/17 13:22:36;;;;;;;7.85;1.63;;;16.40;37.80;;;;;;4933955;28;20053;-65
2021/03/17 13:25:05;;;;;;;5.70;1.83;;;16.40;37.40;;;;;;4928172;28;20622;-65
2021/03/17 13:27:31;;;;;;;6.47;1.50;;;16.50;37.60;;;;;;4933540;28;20098;-65
2021/03/17 13:29:59;;;;;;;4.03;1.58;;;16.60;37.70;;;;;;4940936;28;20042;-65
2021/03/17 13:32:25;;;;;;;9.93;1.73;;;16.60;37.50;;;;;;4942224;28;20134;-65
2021/03/17 13:34:51;;;;;;;9.50;2.05;;;16.70;37.20;;;;;;4936371;28;20050;-65
2021/03/17 13:37:17;;;;;;;5.45;1.50;;;16.60;37.40;;;;;;4936759;28;20043;-65
2021/03/17 13:39:43;;;;;;;4.25;1.38;;;16.60;37.40;;;;;;4937410;28;20046;-64
2021/03/17 13:42:08;;;;;;;6.07;1.40;;;16.50;37.30;;;;;;4938596;28;20035;-65
2021/03/17 13:44:34;;;;;;;6.80;1.48;;;16.40;37.30;;;;;;4942635;28;20038;-66
2021/03/17 13:46:59;;;;;;;7.07;1.30;;;16.30;37.50;;;;;;4934727;28;20046;-65
2021/03/17 13:49:28;;;;;;;3.35;1.40;;;16.20;37.50;;;;;;4925668;28;20082;-66
2021/03/17 13:51:53;;;;;;;6.45;1.38;;;16.00;37.50;;;;;;4933535;28;21178;-66
2021/03/17 13:54:19;;;;;;;3.95;1.63;;;15.90;37.80;;;;;;4930544;28;20078;-65
2021/03/17 13:56:44;;;;;;;5.70;1.38;;;15.90;38.00;;;;;;4948409;28;20093;-65
2021/03/17 13:59:10;;;;;;;3.35;1.33;;;15.90;38.00;;;;;;4933769;28;20162;-65
2021/03/17 14:01:37;;;;;;;6.18;1.77;;;16.00;37.80;;;;;;4938078;28;20046;-65